Aeroporto :







RITROVATECI SU...

 
LOGIN :

Iscrizione | Disclaimer

   EN    FR    IT 

 









Sommario :    VFR   VFR Marginale   IFR   IFR Intensivo   IFR Molto Intensivo
Visibilità : 
Base nubi : 
>= 8 km
>= 3000ft
5 / 8 km
1000 / 3000 ft
1500m / 5 km
500 / 1000 ft
800 / 1500m
200 / 500 ft
< 800m
< 200 ft
Simboli :   Temporali  Nebbia  Neve Forte  Precipitazioni Forti  Vento > 20 kt






- Altitudine del aeroporto : 271 ft


KBAF - Barnes Municipal

ULTIMO METAR :
  • 290353Z AUTO 00000KT 10SM CLR 01/M02 A3004 RMK AO2 SLP178 T00061022

METARs OBSOLETI :
  • 290253Z 34010KT 10SM CLR 04/M02 A3003 RMK AO2 SLP173 T00441017 51006
  • 290153Z 31006KT 10SM CLR 04/M02 A3003 RMK AO2 SLP173 T00441017

TAF KBAF
Valido dal 29 a 00 ore il 30 a 00 ore UTC


282320Z 2900/2924 30010KT P6SM SKC
FM290200 30004KT P6SM SKC
FM291400 21003KT P6SM FEW250
FM291900 18005KT P6SM SKC
FIR KZBW / America del Nord



MetMap, La meteo Aeronautica in un colpo d'occhio ! - Copyright ORBIFLY Dicembre 2007 - Disclaimer

ORBIFLY MET'MAP TEAM :

Programmazione e sviluppo : Alexandra Zaïnal
Concezione : Baudouin d'Aumeries
Aiuto per la programmazione : Marc-Olivier Méhu
Supporto tecnico e logistico : Manuel Goepfert
Aiuto per la traduzione : Arnaldo La Scala

Contatto : metmap@orbifly.com




FONTI E CREDITI :

   NOAA